createdAt,value
2019-01-12T00:01:43.593Z,99.50
2019-01-12T00:04:09.770Z,99.50
2019-01-12T00:06:35.888Z,99.40
2019-01-12T00:09:03.704Z,99.40
2019-01-12T00:11:29.802Z,99.40
2019-01-12T00:13:55.922Z,99.50
2019-01-12T00:16:22.028Z,99.30
2019-01-12T00:18:48.157Z,99.40
2019-01-12T00:21:14.310Z,99.30
2019-01-12T00:23:40.442Z,99.30
2019-01-12T00:26:06.563Z,99.30
2019-01-12T00:28:32.675Z,99.30
2019-01-12T00:30:58.789Z,99.20
2019-01-12T00:33:24.891Z,99.30
2019-01-12T00:35:51.010Z,99.30
2019-01-12T00:38:17.147Z,99.10
2019-01-12T00:40:43.279Z,99.20
2019-01-12T00:43:09.367Z,99.30
2019-01-12T00:45:35.478Z,99.30
2019-01-12T00:48:01.578Z,99.20
2019-01-12T00:50:30.536Z,99.30
2019-01-12T00:52:56.649Z,99.50
2019-01-12T00:55:22.880Z,99.30
2019-01-12T00:57:49.055Z,99.00
2019-01-12T01:00:17.442Z,98.90
2019-01-12T01:02:43.550Z,99.10
2019-01-12T01:05:09.672Z,99.10
2019-01-12T01:07:35.784Z,99.30
2019-01-12T01:10:04.508Z,99.30
2019-01-12T01:12:30.643Z,99.30
2019-01-12T01:14:56.728Z,99.40
2019-01-12T01:17:22.866Z,99.20
2019-01-12T01:19:54.264Z,99.60
2019-01-12T01:22:20.380Z,99.60
2019-01-12T01:24:46.487Z,99.60
2019-01-12T01:27:12.602Z,99.70
2019-01-12T01:29:38.719Z,99.60
2019-01-12T01:32:04.845Z,99.60
2019-01-12T01:34:30.946Z,99.70
2019-01-12T01:37:00.152Z,99.70
2019-01-12T01:39:26.251Z,99.70
2019-01-12T01:41:52.351Z,99.70
2019-01-12T01:44:18.480Z,99.80
2019-01-12T01:46:44.578Z,99.90
2019-01-12T01:49:10.751Z,99.90
2019-01-12T01:51:36.835Z,99.70
2019-01-12T01:54:02.966Z,99.70
2019-01-12T01:56:29.056Z,99.80
2019-01-12T01:58:55.181Z,99.70
2019-01-12T02:01:24.220Z,99.70
2019-01-12T02:03:50.338Z,99.70
2019-01-12T02:06:16.738Z,99.90
2019-01-12T02:08:42.866Z,99.50
2019-01-12T02:11:08.956Z,99.40
2019-01-12T02:13:35.574Z,99.40
2019-01-12T02:16:01.674Z,99.40
2019-01-12T02:18:27.784Z,99.30
2019-01-12T02:20:54.018Z,99.40
2019-01-12T02:23:20.106Z,99.40
2019-01-12T02:25:46.243Z,99.40
2019-01-12T02:28:12.327Z,99.50
2019-01-12T02:30:38.467Z,99.30
2019-01-12T02:33:04.637Z,99.40
2019-01-12T02:35:30.763Z,99.40
2019-01-12T02:37:56.881Z,99.30
2019-01-12T02:40:23.063Z,99.50
2019-01-12T02:42:49.239Z,99.60
2019-01-12T02:45:15.347Z,99.70
2019-01-12T02:47:41.431Z,99.80
2019-01-12T02:50:10.061Z,99.70
2019-01-12T02:52:36.159Z,99.70
2019-01-12T02:55:08.938Z,99.70
2019-01-12T02:57:32.091Z,99.80
2019-01-12T02:59:58.207Z,99.80
2019-01-12T03:02:24.331Z,99.70
2019-01-12T03:04:50.520Z,99.60
2019-01-12T03:07:51.944Z,99.60
2019-01-12T03:10:18.043Z,99.60
2019-01-12T03:12:44.166Z,99.60
2019-01-12T03:15:12.853Z,99.70
2019-01-12T03:17:38.983Z,99.70
2019-01-12T03:20:08.901Z,99.70
2019-01-12T03:22:35.032Z,99.80
2019-01-12T03:25:01.118Z,99.80
2019-01-12T03:27:27.256Z,99.90
2019-01-12T03:29:53.343Z,99.90
2019-01-12T03:32:19.458Z,99.80
2019-01-12T03:34:45.548Z,99.80
2019-01-12T03:37:11.666Z,99.70
2019-01-12T03:39:37.754Z,99.60
2019-01-12T03:42:03.865Z,99.70
2019-01-12T03:44:29.970Z,99.50
2019-01-12T03:46:56.072Z,99.50
2019-01-12T03:49:22.189Z,99.50
2019-01-12T03:51:48.299Z,99.50
2019-01-12T03:54:14.626Z,99.50
2019-01-12T03:56:40.717Z,99.40
2019-01-12T03:59:06.826Z,99.40
2019-01-12T04:01:32.923Z,99.40
2019-01-12T04:03:59.042Z,99.50
2019-01-12T04:06:25.148Z,99.60
2019-01-12T04:08:51.287Z,99.60
2019-01-12T04:11:17.388Z,99.60
2019-01-12T04:13:43.519Z,99.70
2019-01-12T04:16:09.622Z,99.70
2019-01-12T04:18:35.736Z,99.60
2019-01-12T04:21:01.819Z,99.70
2019-01-12T04:23:27.939Z,99.60
2019-01-12T04:25:55.839Z,99.70
2019-01-12T04:28:22.449Z,99.70
2019-01-12T04:30:48.542Z,99.70
2019-01-12T04:33:14.631Z,99.80
2019-01-12T04:35:40.777Z,99.90
2019-01-12T04:38:06.902Z,99.60
2019-01-12T04:40:33.014Z,99.70
2019-01-12T04:42:59.103Z,99.80
2019-01-12T04:45:25.238Z,99.90
2019-01-12T04:47:51.328Z,99.80
2019-01-12T04:50:17.438Z,99.70
2019-01-12T04:52:43.523Z,99.60
2019-01-12T04:55:09.652Z,99.60
2019-01-12T04:57:35.747Z,99.60
2019-01-12T05:00:03.880Z,99.70
2019-01-12T05:02:30.088Z,99.30
2019-01-12T05:04:56.197Z,99.40
2019-01-12T05:07:22.351Z,99.40
2019-01-12T05:09:48.529Z,99.40
2019-01-12T05:12:14.640Z,99.50
2019-01-12T05:14:40.735Z,99.40
2019-01-12T05:17:06.851Z,99.50
2019-01-12T05:19:32.943Z,99.50
2019-01-12T05:21:59.253Z,99.40
2019-01-12T05:24:25.340Z,99.30
2019-01-12T05:26:51.480Z,99.50
2019-01-12T05:29:17.646Z,99.50
2019-01-12T05:31:43.759Z,99.40
2019-01-12T05:34:09.864Z,99.10
2019-01-12T05:36:35.997Z,99.30
2019-01-12T05:39:04.984Z,99.10
2019-01-12T05:41:31.139Z,99.30
2019-01-12T05:43:57.236Z,99.30
2019-01-12T05:46:23.324Z,99.10
2019-01-12T05:48:49.459Z,99.50
2019-01-12T05:51:15.556Z,99.40
2019-01-12T05:53:41.678Z,99.30
2019-01-12T05:56:07.782Z,99.30
2019-01-12T05:58:33.897Z,99.10
2019-01-12T06:00:59.995Z,98.90
2019-01-12T06:03:26.127Z,99.00
2019-01-12T06:05:52.215Z,98.90
2019-01-12T06:08:18.354Z,98.80
2019-01-12T06:10:44.443Z,98.70
2019-01-12T06:13:10.551Z,98.80
2019-01-12T06:15:36.635Z,98.90
2019-01-12T06:18:02.754Z,99.00
2019-01-12T06:20:28.860Z,98.80
2019-01-12T06:22:54.967Z,98.70
2019-01-12T06:25:21.075Z,98.80
2019-01-12T06:27:47.282Z,98.30
2019-01-12T06:30:15.589Z,98.40
2019-01-12T06:32:41.678Z,98.20
2019-01-12T06:35:07.804Z,98.10
2019-01-12T06:37:33.891Z,98.00
2019-01-12T06:40:00.014Z,97.90
2019-01-12T06:42:26.113Z,97.70
2019-01-12T06:44:52.219Z,97.90
2019-01-12T06:47:18.311Z,97.60
2019-01-12T06:49:44.422Z,97.80
2019-01-12T06:52:10.543Z,98.00
2019-01-12T06:54:36.664Z,97.20
2019-01-12T06:57:02.769Z,97.30
2019-01-12T06:59:28.879Z,97.50
2019-01-12T07:01:54.964Z,97.50
2019-01-12T07:04:21.080Z,97.40
2019-01-12T07:06:47.201Z,97.30
2019-01-12T07:09:13.291Z,96.90
2019-01-12T07:11:39.407Z,96.70
2019-01-12T07:14:05.502Z,96.70
2019-01-12T07:16:31.623Z,96.30
2019-01-12T07:18:57.732Z,96.30
2019-01-12T07:21:23.860Z,96.40
2019-01-12T07:23:49.947Z,96.30
2019-01-12T07:26:17.699Z,96.00
2019-01-12T07:28:44.104Z,96.10
2019-01-12T07:31:10.239Z,95.20
2019-01-12T07:33:36.342Z,95.40
2019-01-12T07:36:02.470Z,95.50
2019-01-12T07:38:28.589Z,94.90
2019-01-12T07:40:54.727Z,95.10
2019-01-12T07:43:20.819Z,94.90
2019-01-12T07:45:46.899Z,95.20
2019-01-12T07:48:13.028Z,95.20
2019-01-12T07:50:39.124Z,95.20
2019-01-12T07:53:05.246Z,95.20
2019-01-12T07:55:31.362Z,95.30
2019-01-12T07:57:57.483Z,95.50
2019-01-12T08:00:23.572Z,95.20
2019-01-12T08:02:49.698Z,95.30
2019-01-12T08:05:15.799Z,95.20
2019-01-12T08:07:41.924Z,95.20
2019-01-12T08:10:11.858Z,95.40
2019-01-12T08:12:37.983Z,95.20
2019-01-12T08:15:04.512Z,95.00
2019-01-12T08:17:30.639Z,95.40
2019-01-12T08:19:58.613Z,95.30
2019-01-12T08:22:26.467Z,95.30
2019-01-12T08:24:52.584Z,95.40
2019-01-12T08:27:18.688Z,95.30
2019-01-12T08:29:44.806Z,95.50
2019-01-12T08:32:10.927Z,95.30
2019-01-12T08:34:37.064Z,95.40
2019-01-12T08:37:03.160Z,95.70
2019-01-12T08:39:29.320Z,95.30
2019-01-12T08:41:55.464Z,95.20
2019-01-12T08:44:21.675Z,95.20
2019-01-12T08:46:47.769Z,95.30
2019-01-12T08:49:13.880Z,95.10
2019-01-12T08:51:39.991Z,95.10
2019-01-12T08:54:06.437Z,95.20
2019-01-12T08:56:38.166Z,94.80
2019-01-12T08:59:00.523Z,94.60
2019-01-12T09:01:26.654Z,94.80
2019-01-12T09:03:52.805Z,94.50
2019-01-12T09:06:19.012Z,94.40
2019-01-12T09:08:45.152Z,94.20
2019-01-12T09:11:11.358Z,94.50
2019-01-12T09:13:37.455Z,93.80
2019-01-12T09:16:03.580Z,93.90
2019-01-12T09:18:32.579Z,93.70
2019-01-12T09:20:58.699Z,93.70
2019-01-12T09:23:24.811Z,93.70
2019-01-12T09:25:50.920Z,93.70
2019-01-12T09:28:17.035Z,93.50
2019-01-12T09:30:48.405Z,93.60
2019-01-12T09:33:11.144Z,93.50
2019-01-12T09:35:37.407Z,93.80
2019-01-12T09:38:03.512Z,93.10
2019-01-12T09:40:29.628Z,93.20
2019-01-12T09:42:55.759Z,93.20
2019-01-12T09:45:21.885Z,92.70
2019-01-12T09:47:48.031Z,92.90
2019-01-12T09:50:15.923Z,93.10
2019-01-12T09:52:42.043Z,92.80
2019-01-12T09:55:08.126Z,92.70
2019-01-12T09:57:34.283Z,92.40
2019-01-12T10:00:00.473Z,92.00
2019-01-12T10:02:26.720Z,91.90
2019-01-12T10:04:52.827Z,91.40
2019-01-12T10:07:18.955Z,91.00
2019-01-12T10:09:45.066Z,91.40
2019-01-12T10:12:11.171Z,91.40
2019-01-12T10:14:37.301Z,91.60
2019-01-12T10:17:03.430Z,91.60
2019-01-12T10:19:29.556Z,91.20
2019-01-12T10:21:55.655Z,91.50
2019-01-12T10:24:21.911Z,91.60
2019-01-12T10:26:48.007Z,91.60
2019-01-12T10:29:14.463Z,91.60
2019-01-12T10:31:40.657Z,91.60
2019-01-12T10:34:06.803Z,91.80
2019-01-12T10:36:32.886Z,91.10
2019-01-12T10:38:59.012Z,91.60
2019-01-12T10:41:25.139Z,91.90
2019-01-12T10:43:51.261Z,91.50
2019-01-12T10:46:17.387Z,91.90
2019-01-12T10:48:43.508Z,91.70
2019-01-12T10:51:09.740Z,91.80
2019-01-12T10:53:35.841Z,91.70
2019-01-12T10:56:01.971Z,91.60
2019-01-12T10:58:28.175Z,91.90
2019-01-12T11:00:54.296Z,92.00
2019-01-12T11:03:20.387Z,91.80
2019-01-12T11:05:46.538Z,91.90
2019-01-12T11:08:12.855Z,91.80
2019-01-12T11:10:38.986Z,91.90
2019-01-12T11:13:05.071Z,91.30
2019-01-12T11:15:31.212Z,91.60
2019-01-12T11:17:57.309Z,91.50
2019-01-12T11:20:23.431Z,91.70
2019-01-12T11:22:49.556Z,91.60
2019-01-12T11:25:15.655Z,91.70
2019-01-12T11:27:41.785Z,91.60
2019-01-12T11:30:18.919Z,91.30
2019-01-12T11:32:45.073Z,91.20
2019-01-12T11:35:11.199Z,91.20
2019-01-12T11:37:37.319Z,91.50
2019-01-12T11:40:15.780Z,91.60
2019-01-12T11:42:41.900Z,91.80
2019-01-12T11:45:08.133Z,91.90
2019-01-12T11:47:34.865Z,92.30
2019-01-12T11:50:00.959Z,92.30
2019-01-12T11:52:27.086Z,92.60
2019-01-12T11:54:53.202Z,93.20
2019-01-12T11:57:19.459Z,93.50
2019-01-12T11:59:45.951Z,94.70
2019-01-12T12:02:12.095Z,94.50
2019-01-12T12:04:38.244Z,94.40
2019-01-12T12:07:04.347Z,94.70
2019-01-12T12:09:30.510Z,94.70
2019-01-12T12:11:56.619Z,94.80
2019-01-12T12:14:22.760Z,94.60
2019-01-12T12:16:48.869Z,95.60
2019-01-12T12:19:15.128Z,95.80
2019-01-12T12:21:41.260Z,96.40
2019-01-12T12:24:07.408Z,96.40
2019-01-12T12:26:33.534Z,96.40
2019-01-12T12:28:59.702Z,96.70
2019-01-12T12:31:25.791Z,97.10
2019-01-12T12:33:51.934Z,97.00
2019-01-12T12:36:18.080Z,97.20
2019-01-12T12:38:44.236Z,97.40
2019-01-12T12:41:10.351Z,97.70
2019-01-12T12:43:36.459Z,97.80
2019-01-12T12:46:02.624Z,97.70
2019-01-12T12:48:28.729Z,97.60
2019-01-12T12:50:54.891Z,97.70
2019-01-12T12:53:21.004Z,97.70
2019-01-12T12:55:47.142Z,97.80
2019-01-12T12:58:13.335Z,97.70
2019-01-12T13:00:39.448Z,97.80
2019-01-12T13:03:05.684Z,98.10
2019-01-12T13:05:32.810Z,98.10
2019-01-12T13:07:58.924Z,97.90
2019-01-12T13:10:26.969Z,97.90
2019-01-12T13:12:53.158Z,97.50
2019-01-12T13:15:19.326Z,97.60
2019-01-12T13:17:45.442Z,97.60
2019-01-12T13:20:14.832Z,97.40
2019-01-12T13:22:40.980Z,97.40
2019-01-12T13:25:07.397Z,97.40
2019-01-12T13:27:39.675Z,97.90
2019-01-12T13:30:04.582Z,98.20
2019-01-12T13:32:30.711Z,98.20
2019-01-12T13:34:56.827Z,98.80
2019-01-12T13:37:22.978Z,99.10
2019-01-12T13:39:49.137Z,99.10
2019-01-12T13:42:15.244Z,99.30
2019-01-12T13:44:41.368Z,99.50
2019-01-12T13:47:07.515Z,99.50
2019-01-12T13:49:33.655Z,99.80
2019-01-12T13:51:59.767Z,99.80
2019-01-12T13:54:25.954Z,99.90
2019-01-12T13:56:52.070Z,99.90
2019-01-12T13:59:18.327Z,99.90
2019-01-12T14:01:44.531Z,99.90
2019-01-12T14:04:10.688Z,99.90
2019-01-12T14:06:36.826Z,99.90
2019-01-12T14:09:05.877Z,99.90
2019-01-12T14:11:32.084Z,99.90
2019-01-12T14:13:58.282Z,99.90
2019-01-12T14:16:24.410Z,99.90
2019-01-12T14:18:50.786Z,99.80
2019-01-12T14:21:17.263Z,99.90
2019-01-12T14:23:43.487Z,99.90
2019-01-12T14:26:09.596Z,99.90
2019-01-12T14:28:35.741Z,99.90
2019-01-12T14:31:02.132Z,99.90
2019-01-12T14:33:28.254Z,99.90
2019-01-12T14:35:54.421Z,99.90
2019-01-12T14:38:20.592Z,99.90
2019-01-12T14:40:46.886Z,99.90
2019-01-12T14:43:12.984Z,99.90
2019-01-12T14:45:39.123Z,99.90
2019-01-12T14:48:05.340Z,99.90
2019-01-12T14:50:31.512Z,99.90
2019-01-12T14:52:57.626Z,99.90
2019-01-12T14:55:23.805Z,99.90
2019-01-12T14:57:50.037Z,99.90
2019-01-12T15:00:21.492Z,99.90
2019-01-12T15:02:47.708Z,99.90
2019-01-12T15:05:15.619Z,99.90
2019-01-12T15:07:41.931Z,99.90
2019-01-12T15:10:11.276Z,99.90
2019-01-12T15:12:37.506Z,99.90
2019-01-12T15:15:07.191Z,99.90
2019-01-12T15:17:33.378Z,99.90
2019-01-12T15:19:59.491Z,99.90
2019-01-12T15:22:25.653Z,99.90
2019-01-12T15:24:51.780Z,99.90
2019-01-12T15:27:17.907Z,99.90
2019-01-12T15:29:44.032Z,99.90
2019-01-12T15:32:10.169Z,99.90
2019-01-12T15:34:36.290Z,99.90
2019-01-12T15:37:02.439Z,99.90
2019-01-12T15:39:28.614Z,99.90
2019-01-12T15:41:54.857Z,99.90
2019-01-12T15:44:21.001Z,99.90
2019-01-12T15:46:47.152Z,99.90
2019-01-12T15:49:13.268Z,99.90
2019-01-12T15:51:39.406Z,99.90
2019-01-12T15:54:05.515Z,99.90
2019-01-12T15:56:31.631Z,99.90
2019-01-12T15:58:57.751Z,99.90
2019-01-12T16:01:23.935Z,99.90
2019-01-12T16:03:50.050Z,99.90
2019-01-12T16:06:16.189Z,99.90
2019-01-12T16:08:42.316Z,99.90
2019-01-12T16:11:08.419Z,99.90
2019-01-12T16:13:34.543Z,99.90
2019-01-12T16:16:00.694Z,99.90
2019-01-12T16:18:26.823Z,99.90
2019-01-12T16:20:52.930Z,99.90
2019-01-12T16:23:19.114Z,99.90
2019-01-12T16:25:45.342Z,99.90
2019-01-12T16:28:11.467Z,99.90
2019-01-12T16:30:37.688Z,99.90
2019-01-12T16:33:03.886Z,99.90
2019-01-12T16:35:30.027Z,99.90
2019-01-12T16:37:58.788Z,99.90
2019-01-12T16:40:25.911Z,99.90
2019-01-12T16:42:52.058Z,99.90
2019-01-12T16:45:18.212Z,99.90
2019-01-12T16:47:44.345Z,99.90
2019-01-12T16:50:10.603Z,99.90
2019-01-12T16:52:36.872Z,99.90
2019-01-12T16:55:06.696Z,99.90
2019-01-12T16:57:32.873Z,99.90
2019-01-12T16:59:59.817Z,99.90
2019-01-12T17:02:26.027Z,99.90
2019-01-12T17:04:52.168Z,99.90
2019-01-12T17:07:18.286Z,99.90
2019-01-12T17:09:44.439Z,99.90
2019-01-12T17:12:10.680Z,99.90
2019-01-12T17:14:36.783Z,99.90
2019-01-12T17:17:02.903Z,99.90
2019-01-12T17:19:29.231Z,99.80
2019-01-12T17:21:55.386Z,99.80
2019-01-12T17:24:21.503Z,99.70
2019-01-12T17:26:47.665Z,99.70
2019-01-12T17:29:17.728Z,99.70
2019-01-12T17:31:41.906Z,99.80
2019-01-12T17:34:07.992Z,99.90
2019-01-12T17:36:34.127Z,99.90
2019-01-12T17:39:00.260Z,99.90
2019-01-12T17:41:26.448Z,99.90
2019-01-12T17:43:52.557Z,99.90
2019-01-12T17:46:18.719Z,99.90
2019-01-12T17:48:44.835Z,99.80
2019-01-12T17:51:11.023Z,99.80
2019-01-12T17:53:37.244Z,99.70
2019-01-12T17:56:03.399Z,99.80
2019-01-12T17:58:29.595Z,99.80
2019-01-12T18:00:55.730Z,99.80
2019-01-12T18:03:21.916Z,99.80
2019-01-12T18:05:48.054Z,99.60
2019-01-12T18:08:14.219Z,99.70
2019-01-12T18:10:40.387Z,99.70
2019-01-12T18:13:06.578Z,99.80
2019-01-12T18:15:32.679Z,99.80
2019-01-12T18:17:58.828Z,99.60
2019-01-12T18:20:24.923Z,99.50
2019-01-12T18:22:51.059Z,99.20
2019-01-12T18:25:17.195Z,99.40
2019-01-12T18:27:43.353Z,99.20
2019-01-12T18:30:18.293Z,99.00
2019-01-12T18:32:44.397Z,99.20
2019-01-12T18:35:11.140Z,99.10
2019-01-12T18:37:37.256Z,99.00
2019-01-12T18:40:09.880Z,99.10
2019-01-12T18:42:35.996Z,98.90
2019-01-12T18:45:03.815Z,98.60
2019-01-12T18:47:29.926Z,98.60
2019-01-12T18:49:56.105Z,98.80
2019-01-12T18:52:22.325Z,98.90
2019-01-12T18:54:48.462Z,98.90
2019-01-12T18:57:14.676Z,98.90
2019-01-12T18:59:40.824Z,98.70
2019-01-12T19:02:06.934Z,98.70
2019-01-12T19:04:33.106Z,98.70
2019-01-12T19:06:59.359Z,98.70
2019-01-12T19:09:25.466Z,98.80
2019-01-12T19:11:51.607Z,98.60
2019-01-12T19:14:17.729Z,98.40
2019-01-12T19:16:44.060Z,98.50
2019-01-12T19:19:10.276Z,98.20
2019-01-12T19:21:36.403Z,98.10
2019-01-12T19:24:02.507Z,98.00
2019-01-12T19:26:28.684Z,98.00
2019-01-12T19:28:54.803Z,98.20
2019-01-12T19:31:20.990Z,98.10
2019-01-12T19:33:47.125Z,98.10
2019-01-12T19:36:13.486Z,98.10
2019-01-12T19:38:39.638Z,98.20
2019-01-12T19:41:05.902Z,98.20
2019-01-12T19:43:32.106Z,98.10
2019-01-12T19:45:58.221Z,98.10
2019-01-12T19:48:24.520Z,98.10
2019-01-12T19:50:50.626Z,98.10
2019-01-12T19:53:16.771Z,98.20
2019-01-12T19:55:42.920Z,98.20
2019-01-12T19:58:09.084Z,98.30
2019-01-12T20:00:35.184Z,98.20
2019-01-12T20:03:01.309Z,98.30
2019-01-12T20:05:27.498Z,98.30
2019-01-12T20:07:53.714Z,98.30
2019-01-12T20:10:19.842Z,98.20
2019-01-12T20:12:46.145Z,98.40
2019-01-12T20:15:18.301Z,98.20
2019-01-12T20:17:44.432Z,98.10
2019-01-12T20:20:14.798Z,98.00
2019-01-12T20:22:40.957Z,98.00
2019-01-12T20:25:09.990Z,98.10
2019-01-12T20:27:36.494Z,98.10
2019-01-12T20:30:18.626Z,98.20
2019-01-12T20:32:54.536Z,98.30
2019-01-12T20:35:27.852Z,98.30
2019-01-12T20:38:00.630Z,98.10
2019-01-12T20:40:33.355Z,98.00
2019-01-12T20:43:18.315Z,97.90
2019-01-12T20:45:48.299Z,98.10
2019-01-12T20:48:20.947Z,98.10
2019-01-12T20:50:53.927Z,98.00
2019-01-12T20:53:29.751Z,98.00
2019-01-12T20:56:17.487Z,98.00
2019-01-12T20:58:53.400Z,98.00
2019-01-12T21:01:46.334Z,98.00
2019-01-12T21:04:19.275Z,98.00
2019-01-12T21:06:55.357Z,97.90
2019-01-12T21:09:40.573Z,97.90
2019-01-12T21:12:13.374Z,97.90
2019-01-12T21:14:48.790Z,98.20
2019-01-12T21:17:14.967Z,97.90
2019-01-12T21:19:47.732Z,97.80
2019-01-12T21:22:09.161Z,97.70
2019-01-12T21:24:35.320Z,97.70
2019-01-12T21:27:01.462Z,97.70
2019-01-12T21:29:27.601Z,97.60
2019-01-12T21:31:53.741Z,97.70
2019-01-12T21:34:19.847Z,97.40
2019-01-12T21:36:46.029Z,97.40
2019-01-12T21:39:12.190Z,97.30
2019-01-12T21:41:38.434Z,97.50
2019-01-12T21:44:04.747Z,97.50
2019-01-12T21:46:30.844Z,97.30
2019-01-12T21:48:56.994Z,97.40
2019-01-12T21:51:30.940Z,97.40
2019-01-12T21:53:57.939Z,97.10
2019-01-12T21:56:24.138Z,97.10
2019-01-12T21:58:50.285Z,96.90
2019-01-12T22:01:17.908Z,97.00
2019-01-12T22:03:44.113Z,97.00
2019-01-12T22:06:10.244Z,96.90
2019-01-12T22:08:36.379Z,96.70
2019-01-12T22:11:02.752Z,96.80
2019-01-12T22:13:29.334Z,96.90
2019-01-12T22:15:55.543Z,96.90
2019-01-12T22:18:21.715Z,97.20
2019-01-12T22:20:47.853Z,97.20
2019-01-12T22:23:14.002Z,97.40
2019-01-12T22:25:40.223Z,97.30
2019-01-12T22:28:06.327Z,97.30
2019-01-12T22:30:32.467Z,97.70
2019-01-12T22:32:58.567Z,97.80
2019-01-12T22:35:24.696Z,97.80
2019-01-12T22:37:50.807Z,97.70
2019-01-12T22:40:18.673Z,97.70
2019-01-12T22:42:44.802Z,97.80
2019-01-12T22:45:10.943Z,97.80
2019-01-12T22:47:37.081Z,97.70
2019-01-12T22:50:09.735Z,97.80
2019-01-12T22:52:35.865Z,97.70
2019-01-12T22:55:03.153Z,97.40
2019-01-12T22:57:29.361Z,97.70
2019-01-12T22:59:57.153Z,97.50
2019-01-12T23:02:23.492Z,97.50
2019-01-12T23:04:49.602Z,97.60
2019-01-12T23:07:15.748Z,97.60
2019-01-12T23:09:41.851Z,97.60
2019-01-12T23:12:07.995Z,97.50
2019-01-12T23:14:34.098Z,97.40
2019-01-12T23:17:00.251Z,97.60
2019-01-12T23:19:26.343Z,97.60
2019-01-12T23:21:52.478Z,97.70
2019-01-12T23:24:18.582Z,97.60
2019-01-12T23:26:44.702Z,97.60
2019-01-12T23:29:10.811Z,97.70
2019-01-12T23:31:37.002Z,97.30
2019-01-12T23:34:03.167Z,97.60
2019-01-12T23:36:29.313Z,97.60
2019-01-12T23:38:55.443Z,97.70
2019-01-12T23:41:21.535Z,97.70
2019-01-12T23:43:48.067Z,97.60
2019-01-12T23:46:14.257Z,97.70
2019-01-12T23:48:40.387Z,97.70
2019-01-12T23:51:06.496Z,97.70
2019-01-12T23:53:32.607Z,97.70
2019-01-12T23:55:59.027Z,97.70
2019-01-12T23:58:25.144Z,97.70
